Time;durP1;ratioP1;P1;durP2;ratioP2;P2;SDS_P1;SDS_P2;PMS_P1;PMS_P2;Temp;Humidity;BMP_temperature;BMP_pressure;BME280_temperature;BME280_humidity;BME280_pressure;Samples;Min_cycle;Max_cycle;Signal;HPM_P1;HPM_P2
2022/09/27 00:00:36;;;;;;;;;;;;;;;15.37;100.00;98194.50;5009396;28;19972;-68
2022/09/27 00:03:01;;;;;;;;;;;;;;;15.36;100.00;98192.84;5007153;28;19918;-69
2022/09/27 00:05:27;;;;;;;;;;;;;;;15.36;100.00;98190.19;5006106;28;19924;-70
2022/09/27 00:07:52;;;;;;;;;;;;;;;15.35;100.00;98201.84;5001989;28;19922;-70
2022/09/27 00:10:18;;;;;;;;;;;;;;;15.34;100.00;98202.84;5005460;28;20305;-68
2022/09/27 00:12:43;;;;;;;;;;;;;;;15.32;100.00;98196.91;5003808;28;19924;-69
2022/09/27 00:15:09;;;;;;;;;;;;;;;15.27;100.00;98194.06;5002887;28;19972;-70
2022/09/27 00:17:35;;;;;;;;;;;;;;;15.25;100.00;98185.50;5006129;28;19972;-69
2022/09/27 00:20:01;;;;;;;;;;;;;;;15.19;100.00;98181.00;5003025;28;20012;-69
2022/09/27 00:22:27;;;;;;;;;;;;;;;15.16;100.00;98172.41;5003147;28;19924;-69
2022/09/27 00:24:53;;;;;;;;;;;;;;;15.16;100.00;98166.28;5006715;28;20054;-70
2022/09/27 00:27:18;;;;;;;;;;;;;;;15.12;100.00;98165.06;5007903;28;19955;-70
2022/09/27 00:29:44;;;;;;;;;;;;;;;15.09;100.00;98150.34;5006684;28;19917;-70
2022/09/27 00:32:10;;;;;;;;;;;;;;;15.07;100.00;98144.44;5002369;28;19918;-69
2022/09/27 00:34:35;;;;;;;;;;;;;;;15.07;100.00;98152.41;4986900;28;19924;-70
2022/09/27 00:37:00;;;;;;;;;;;;;;;15.03;100.00;98164.44;5004730;28;20275;-68
2022/09/27 00:39:26;;;;;;;;;;;;;;;14.99;100.00;98168.53;5002105;28;20319;-69
2022/09/27 00:41:52;;;;;;;;;;;;;;;14.97;100.00;98161.78;5002444;28;20401;-68
2022/09/27 00:44:32;;;;;;;;;;;;;;;14.89;100.00;98162.00;5007282;28;19917;-69
2022/09/27 00:47:12;;;;;;;;;;;;;;;14.80;100.00;98161.38;4985881;28;19922;-70
2022/09/27 00:49:38;;;;;;;;;;;;;;;14.69;100.00;98172.59;5002107;28;19965;-70
2022/09/27 00:52:09;;;;;;;;;;;;;;;14.60;100.00;98160.53;5004317;28;19913;-69
2022/09/27 00:54:37;;;;;;;;;;;;;;;14.58;100.00;98157.25;5002919;28;20000;-70
2022/09/27 00:57:03;;;;;;;;;;;;;;;14.52;100.00;98158.88;5004011;28;20257;-69
2022/09/27 00:59:32;;;;;;;;;;;;;;;14.49;100.00;98161.13;4983335;28;19987;-70
2022/09/27 01:01:59;;;;;;;;;;;;;;;14.43;100.00;98169.91;5004914;28;19929;-71
2022/09/27 01:04:26;;;;;;;;;;;;;;;14.34;100.00;98167.38;5005281;28;19971;-70
2022/09/27 01:06:52;;;;;;;;;;;;;;;14.31;100.00;98159.03;4998209;28;19987;-70
2022/09/27 01:09:20;;;;;;;;;;;;;;;14.29;100.00;98153.91;4987783;28;19917;-70
2022/09/27 01:11:45;;;;;;;;;;;;;;;14.30;100.00;98152.91;5001452;28;19924;-69
2022/09/27 01:14:16;;;;;;;;;;;;;;;14.29;100.00;98161.88;5006576;28;19917;-70
2022/09/27 01:16:42;;;;;;;;;;;;;;;14.23;100.00;98156.53;4985844;28;20343;-70
2022/09/27 01:19:20;;;;;;;;;;;;;;;14.19;100.00;98157.97;5006074;28;20028;-70
2022/09/27 01:21:45;;;;;;;;;;;;;;;14.19;100.00;98147.34;5001607;28;19965;-69
2022/09/27 01:24:14;;;;;;;;;;;;;;;14.22;100.00;98142.47;5003212;28;19921;-69
2022/09/27 01:26:55;;;;;;;;;;;;;;;14.25;100.00;98143.91;4986843;28;20373;-70
2022/09/27 01:29:24;;;;;;;;;;;;;;;14.24;100.00;98140.44;4988561;28;20447;-70
2022/09/27 01:31:56;;;;;;;;;;;;;;;14.20;100.00;98131.22;4984249;28;20039;-69
2022/09/27 01:34:24;;;;;;;;;;;;;;;14.15;100.00;98128.34;4986927;28;19924;-70
2022/09/27 01:37:00;;;;;;;;;;;;;;;14.08;100.00;98119.53;5000580;28;19917;-69
2022/09/27 01:39:43;;;;;;;;;;;;;;;14.08;100.00;98121.41;4987697;28;20428;-70
2022/09/27 01:42:36;;;;;;;;;;;;;;;14.09;100.00;98115.06;5002446;28;19924;-70
2022/09/27 01:45:05;;;;;;;;;;;;;;;14.10;100.00;98117.53;4988497;28;19992;-69
2022/09/27 01:47:42;;;;;;;;;;;;;;;14.03;100.00;98108.72;4982846;28;19926;-70
2022/09/27 01:50:35;;;;;;;;;;;;;;;14.00;100.00;98101.19;4985442;28;20362;-70
2022/09/27 01:53:02;;;;;;;;;;;;;;;13.98;100.00;98100.56;5003236;28;19924;-71
2022/09/27 01:55:36;;;;;;;;;;;;;;;13.98;100.00;98086.47;4985026;28;19917;-70
2022/09/27 01:58:25;;;;;;;;;;;;;;;13.99;100.00;98073.03;5002769;28;20015;-69
2022/09/27 02:00:53;;;;;;;;;;;;;;;14.01;100.00;98064.88;4985047;28;19921;-70
2022/09/27 02:03:20;;;;;;;;;;;;;;;14.03;100.00;98063.63;5008308;28;20006;-70
2022/09/27 02:06:10;;;;;;;;;;;;;;;14.00;100.00;98064.06;5002587;28;19924;-70
2022/09/27 02:08:59;;;;;;;;;;;;;;;13.99;100.00;98075.69;5001275;28;20414;-70
2022/09/27 02:11:47;;;;;;;;;;;;;;;13.97;100.00;98080.34;4999251;28;20004;-71
2022/09/27 02:14:18;;;;;;;;;;;;;;;13.89;100.00;98077.91;4984961;28;19917;-69
2022/09/27 02:16:50;;;;;;;;;;;;;;;13.83;100.00;98078.69;4983687;28;20011;-71
2022/09/27 02:19:35;;;;;;;;;;;;;;;13.78;100.00;98075.81;4987101;28;19984;-70
2022/09/27 02:22:12;;;;;;;;;;;;;;;13.73;100.00;98067.63;5012458;28;19918;-69
2022/09/27 02:24:45;;;;;;;;;;;;;;;13.74;100.00;98069.25;4983641;28;20362;-69
2022/09/27 02:27:30;;;;;;;;;;;;;;;13.73;100.00;98072.94;4987617;28;20012;-68
2022/09/27 02:30:05;;;;;;;;;;;;;;;13.68;100.00;98085.97;4987884;28;19968;-70
2022/09/27 02:32:33;;;;;;;;;;;;;;;13.64;100.00;98087.38;4982662;28;19972;-69
2022/09/27 02:35:01;;;;;;;;;;;;;;;13.59;100.00;98068.59;4980361;28;19953;-69
2022/09/27 02:37:26;;;;;;;;;;;;;;;13.56;100.00;98066.34;4984962;28;19917;-70
2022/09/27 02:39:51;;;;;;;;;;;;;;;13.53;100.00;98046.38;4986071;28;19984;-69
2022/09/27 02:42:17;;;;;;;;;;;;;;;13.49;100.00;98051.22;4982641;28;19921;-69
2022/09/27 02:44:43;;;;;;;;;;;;;;;13.46;100.00;98046.34;4987503;28;19917;-69
2022/09/27 02:47:24;;;;;;;;;;;;;;;13.40;100.00;98044.47;4986532;28;19987;-68
2022/09/27 02:49:55;;;;;;;;;;;;;;;13.46;100.00;98043.69;4984853;28;19924;-68
2022/09/27 02:52:47;;;;;;;;;;;;;;;13.49;100.00;98042.47;5006737;28;20052;-69
2022/09/27 02:55:16;;;;;;;;;;;;;;;13.52;100.00;98034.94;4989040;28;19917;-69
2022/09/27 02:58:30;;;;;;;;;;;;;;;13.50;100.00;98034.31;5003243;28;20370;-68
2022/09/27 03:01:26;;;;;;;;;;;;;;;13.37;100.00;98036.13;4898776;29;19942;-70
2022/09/27 03:04:36;;;;;;;;;;;;;;;13.18;100.00;98021.75;5006542;28;19918;-70
2022/09/27 03:07:02;;;;;;;;;;;;;;;13.16;100.00;98018.47;5003555;28;19941;-69
2022/09/27 03:09:28;;;;;;;;;;;;;;;13.16;100.00;98013.19;4989407;28;19917;-70
2022/09/27 03:11:54;;;;;;;;;;;;;;;13.16;100.00;98021.13;4986025;28;20012;-69
2022/09/27 03:14:20;;;;;;;;;;;;;;;13.13;100.00;98034.78;4988460;28;20004;-68
2022/09/27 03:17:03;;;;;;;;;;;;;;;13.10;100.00;98040.41;5015668;28;19968;-69
2022/09/27 03:19:47;;;;;;;;;;;;;;;13.08;100.00;98037.13;5007399;28;19972;-69
2022/09/27 03:22:33;;;;;;;;;;;;;;;13.05;100.00;98032.25;4987705;28;19996;-70
2022/09/27 03:24:59;;;;;;;;;;;;;;;13.05;100.00;98032.25;5003456;28;20480;-71
2022/09/27 03:27:24;;;;;;;;;;;;;;;13.03;100.00;98034.25;4991102;28;19925;-70
2022/09/27 03:29:50;;;;;;;;;;;;;;;13.01;100.00;98036.31;4993343;28;19921;-71
2022/09/27 03:32:15;;;;;;;;;;;;;;;12.99;100.00;98033.84;4984837;28;19917;-70
2022/09/27 03:35:03;;;;;;;;;;;;;;;12.96;100.00;98033.44;4998466;28;19918;-70
2022/09/27 03:37:29;;;;;;;;;;;;;;;12.97;100.00;98029.75;4982310;28;19921;-70
2022/09/27 03:39:54;;;;;;;;;;;;;;;12.95;100.00;98039.72;4987314;28;19924;-71
2022/09/27 03:42:20;;;;;;;;;;;;;;;12.96;100.00;98028.13;4986659;28;19964;-71
2022/09/27 03:44:50;;;;;;;;;;;;;;;12.96;100.00;98028.91;4990000;28;19983;-69
2022/09/27 03:47:16;;;;;;;;;;;;;;;13.00;100.00;98024.06;4989285;28;19917;-69
2022/09/27 03:49:41;;;;;;;;;;;;;;;13.00;100.00;98029.38;4985894;28;19917;-70
2022/09/27 03:52:07;;;;;;;;;;;;;;;13.00;100.00;98034.66;4977876;28;20291;-70
2022/09/27 03:54:32;;;;;;;;;;;;;;;12.98;100.00;98036.69;5005493;28;19918;-70
2022/09/27 03:56:57;;;;;;;;;;;;;;;12.97;100.00;98035.03;4985593;28;20386;-70
2022/09/27 03:59:23;;;;;;;;;;;;;;;12.96;100.00;98039.50;4986528;28;19990;-70
2022/09/27 04:02:24;;;;;;;;;;;;;;;12.90;100.00;98034.19;4999636;28;19917;-69
2022/09/27 04:05:13;;;;;;;;;;;;;;;12.69;100.00;98033.25;4982033;28;19917;-70
2022/09/27 04:07:39;;;;;;;;;;;;;;;12.71;100.00;98041.00;5018282;28;20337;-71
2022/09/27 04:10:04;;;;;;;;;;;;;;;12.76;100.00;98037.75;4989291;28;19917;-70
2022/09/27 04:12:31;;;;;;;;;;;;;;;12.80;100.00;98039.81;4985760;28;20011;-69
2022/09/27 04:14:57;;;;;;;;;;;;;;;12.82;100.00;98039.63;5001308;28;19928;-69
2022/09/27 04:17:49;;;;;;;;;;;;;;;12.82;100.00;98032.50;5004563;28;20016;-71
2022/09/27 04:20:40;;;;;;;;;;;;;;;12.75;100.00;98025.53;5001050;28;19919;-70
2022/09/27 04:23:08;;;;;;;;;;;;;;;12.65;100.00;98023.25;4987916;28;20409;-71
2022/09/27 04:25:38;;;;;;;;;;;;;;;12.59;100.00;98022.19;4986470;28;20223;-70
2022/09/27 04:28:14;;;;;;;;;;;;;;;12.50;100.00;98023.31;4987906;28;19917;-70
2022/09/27 04:30:40;;;;;;;;;;;;;;;12.49;100.00;98018.22;5006993;28;20024;-71
2022/09/27 04:33:11;;;;;;;;;;;;;;;12.52;100.00;98023.94;5003430;28;20402;-70
2022/09/27 04:39:01;;;;;;;;;;;;;;;12.58;100.00;98009.13;4987334;28;19921;-69
2022/09/27 04:41:27;;;;;;;;;;;;;;;12.57;100.00;98008.31;4987566;28;19921;-68
2022/09/27 04:43:53;;;;;;;;;;;;;;;12.53;100.00;98007.06;4989155;28;19976;-70
2022/09/27 04:46:20;;;;;;;;;;;;;;;12.46;100.00;98008.03;4988125;28;20282;-70
2022/09/27 04:48:46;;;;;;;;;;;;;;;12.45;100.00;98007.22;4987102;28;20007;-69
2022/09/27 04:51:11;;;;;;;;;;;;;;;12.48;100.00;98014.78;4981251;28;20020;-71
2022/09/27 04:53:37;;;;;;;;;;;;;;;12.50;100.00;98022.50;4989226;28;19996;-69
2022/09/27 04:56:05;;;;;;;;;;;;;;;12.49;100.00;98021.69;5019539;28;19917;-69
2022/09/27 04:58:32;;;;;;;;;;;;;;;12.48;100.00;98020.06;4988614;28;20017;-68
2022/09/27 05:00:58;;;;;;;;;;;;;;;12.42;100.00;98009.44;4987751;28;19960;-69
2022/09/27 05:03:46;;;;;;;;;;;;;;;12.38;100.00;98006.34;4983098;28;19917;-69
2022/09/27 05:06:13;;;;;;;;;;;;;;;12.38;100.00;98008.97;4987702;28;19918;-69
2022/09/27 05:08:39;;;;;;;;;;;;;;;12.36;100.00;98008.38;5004689;28;19928;-71
2022/09/27 05:11:17;;;;;;;;;;;;;;;12.32;100.00;98020.31;5003926;28;20342;-70
2022/09/27 05:14:03;;;;;;;;;;;;;;;12.30;100.00;98019.72;4994968;28;19922;-71
2022/09/27 05:16:29;;;;;;;;;;;;;;;12.26;100.00;98015.78;4987575;28;19917;-70
2022/09/27 05:19:20;;;;;;;;;;;;;;;12.20;100.00;98020.00;5002845;28;19918;-71
2022/09/27 05:21:55;;;;;;;;;;;;;;;12.13;100.00;98021.00;4996489;28;20371;-69
2022/09/27 05:24:21;;;;;;;;;;;;;;;12.04;100.00;98020.28;4987838;28;19925;-71
2022/09/27 05:26:46;;;;;;;;;;;;;;;12.00;100.00;98018.22;5002623;28;19926;-72
2022/09/27 05:29:11;;;;;;;;;;;;;;;12.04;100.00;98022.94;4986660;28;20353;-70
2022/09/27 05:31:39;;;;;;;;;;;;;;;12.03;100.00;98013.34;5008708;28;20302;-70
2022/09/27 05:34:10;;;;;;;;;;;;;;;12.07;100.00;98027.03;5008635;28;19937;-71
2022/09/27 05:36:40;;;;;;;;;;;;;;;11.98;100.00;98022.88;4993855;28;19921;-71
2022/09/27 05:39:06;;;;;;;;;;;;;;;12.00;100.00;98021.69;5009696;28;19928;-71
2022/09/27 05:41:32;;;;;;;;;;;;;;;12.04;100.00;98030.03;4983935;28;19925;-73
2022/09/27 05:43:57;;;;;;;;;;;;;;;12.05;100.00;98034.31;5007318;28;19925;-71
2022/09/27 05:46:23;;;;;;;;;;;;;;;12.07;100.00;98034.97;4998019;28;20362;-70
2022/09/27 05:48:48;;;;;;;;;;;;;;;12.10;100.00;98042.50;5000580;28;19925;-69
2022/09/27 05:51:14;;;;;;;;;;;;;;;12.15;100.00;98045.41;4980099;28;20012;-71
2022/09/27 05:53:39;;;;;;;;;;;;;;;12.11;100.00;98037.03;5005702;28;20254;-70
2022/09/27 05:56:10;;;;;;;;;;;;;;;12.03;100.00;98033.69;5013718;28;19917;-70
2022/09/27 05:59:05;;;;;;;;;;;;;;;12.04;100.00;98043.25;4987394;28;20375;-71
2022/09/27 06:01:50;;;;;;;;;;;;;;;12.04;100.00;98044.06;4998886;28;19921;-72
2022/09/27 06:04:35;;;;;;;;;;;;;;;12.12;100.00;98045.78;4999426;28;19969;-71
2022/09/27 06:07:30;;;;;;;;;;;;;;;12.24;100.00;98050.38;4993931;28;19921;-70
2022/09/27 06:09:56;;;;;;;;;;;;;;;12.26;100.00;98058.09;4986572;28;19921;-72
2022/09/27 06:12:21;;;;;;;;;;;;;;;12.29;100.00;98044.53;4999773;28;19959;-71
2022/09/27 06:14:47;;;;;;;;;;;;;;;12.29;100.00;98049.81;4987371;28;19980;-73
2022/09/27 06:17:25;;;;;;;;;;;;;;;12.31;100.00;98055.75;4980090;28;19918;-69
2022/09/27 06:19:50;;;;;;;;;;;;;;;12.27;100.00;98051.81;4984855;28;20430;-72
2022/09/27 06:22:15;;;;;;;;;;;;;;;12.28;100.00;98042.88;4984390;28;19996;-72
2022/09/27 06:24:51;;;;;;;;;;;;;;;12.31;100.00;98055.75;4984342;28;20003;-73
2022/09/27 06:27:21;;;;;;;;;;;;;;;12.33;100.00;98053.69;4983322;28;20024;-72
2022/09/27 06:29:55;;;;;;;;;;;;;;;12.41;100.00;98044.81;5000522;28;20128;-72
2022/09/27 06:32:34;;;;;;;;;;;;;;;12.43;100.00;98053.41;4987323;28;19922;-72
2022/09/27 06:35:16;;;;;;;;;;;;;;;12.49;100.00;98050.78;4985302;28;19918;-74
2022/09/27 06:37:41;;;;;;;;;;;;;;;12.60;100.00;98057.41;5001822;28;19972;-71
2022/09/27 06:40:08;;;;;;;;;;;;;;;12.67;100.00;98056.41;4987483;28;19925;-70
2022/09/27 06:42:52;;;;;;;;;;;;;;;12.68;100.00;98051.94;5004781;28;19924;-70
2022/09/27 06:45:53;;;;;;;;;;;;;;;12.79;100.00;98055.88;4937100;29;20450;-72
2022/09/27 06:48:42;;;;;;;;;;;;;;;12.81;100.00;98064.47;4997301;28;19917;-70
2022/09/27 06:51:14;;;;;;;;;;;;;;;12.66;100.00;98060.06;5017772;28;20003;-70
2022/09/27 06:53:41;;;;;;;;;;;;;;;12.59;100.00;98061.88;4986522;28;19917;-70
2022/09/27 06:56:06;;;;;;;;;;;;;;;12.66;100.00;98060.06;5014808;28;19928;-70
2022/09/27 07:01:53;;;;;;;;;;;;;;;12.91;100.00;98062.28;4983971;28;19925;-71
2022/09/27 07:04:37;;;;;;;;;;;;;;;13.06;100.00;98071.78;5002592;28;19929;-73
2022/09/27 07:07:18;;;;;;;;;;;;;;;13.04;100.00;98072.97;4982464;28;19925;-71
2022/09/27 07:09:45;;;;;;;;;;;;;;;13.09;100.00;98070.56;5002827;28;20021;-69
2022/09/27 07:12:12;;;;;;;;;;;;;;;13.16;100.00;98060.84;4982013;28;20403;-70
2022/09/27 07:14:37;;;;;;;;;;;;;;;13.29;100.00;98065.41;4981773;28;19918;-68
2022/09/27 07:17:03;;;;;;;;;;;;;;;13.41;100.00;98064.66;4984827;28;19924;-69
2022/09/27 07:19:34;;;;;;;;;;;;;;;13.53;100.00;98071.03;4972422;28;19937;-71
2022/09/27 07:22:00;;;;;;;;;;;;;;;13.61;100.00;98074.53;4980885;28;19944;-71
2022/09/27 07:24:26;;;;;;;;;;;;;;;13.65;100.00;98078.41;4983302;28;19940;-69
2022/09/27 07:26:52;;;;;;;;;;;;;;;13.69;100.00;98072.53;4983567;28;20369;-70
2022/09/27 07:29:19;;;;;;;;;;;;;;;13.62;100.00;98081.44;4984295;28;19921;-71
2022/09/27 07:31:46;;;;;;;;;;;;;;;13.59;100.00;98076.56;4982861;28;20020;-70
2022/09/27 07:34:12;;;;;;;;;;;;;;;13.50;100.00;98067.94;5001534;28;20000;-69
2022/09/27 07:36:38;;;;;;;;;;;;;;;13.53;100.00;98068.38;5002589;28;19932;-70
2022/09/27 07:39:04;;;;;;;;;;;;;;;13.63;100.00;98077.78;4975714;28;19918;-69
2022/09/27 07:41:32;;;;;;;;;;;;;;;13.71;100.00;98082.94;4991866;28;20358;-70
2022/09/27 07:43:58;;;;;;;;;;;;;;;13.86;100.00;98078.28;4989543;28;19921;-71
2022/09/27 07:46:24;;;;;;;;;;;;;;;13.92;100.00;98074.84;4990221;28;19968;-70
2022/09/27 07:48:55;;;;;;;;;;;;;;;13.90;100.00;98080.31;5006942;28;20445;-69
2022/09/27 07:51:34;;;;;;;;;;;;;;;13.95;100.00;98077.09;4982305;28;20092;-66
2022/09/27 07:54:06;;;;;;;;;;;;;;;14.02;100.00;98077.91;4983649;28;19921;-69
2022/09/27 07:56:51;;;;;;;;;;;;;;;14.12;100.00;98077.53;5000271;28;19939;-69
2022/09/27 07:59:19;;;;;;;;;;;;;;;14.24;100.00;98075.94;4984242;28;19921;-67
2022/09/27 08:01:45;;;;;;;;;;;;;;;14.30;100.00;98081.25;5005007;28;19984;-67
2022/09/27 08:04:10;;;;;;;;;;;;;;;14.44;100.00;98079.44;4986299;28;19917;-67
2022/09/27 08:06:36;;;;;;;;;;;;;;;14.55;100.00;98083.34;4988184;28;19928;-67
2022/09/27 08:09:06;;;;;;;;;;;;;;;14.62;100.00;98089.47;4988313;28;20390;-69
2022/09/27 08:11:32;;;;;;;;;;;;;;;14.69;100.00;98080.47;4988020;28;20017;-67
2022/09/27 08:13:57;;;;;;;;;;;;;;;14.68;100.00;98088.66;4985194;28;20410;-67
2022/09/27 08:16:27;;;;;;;;;;;;;;;14.73;100.00;98092.31;4989737;28;19924;-67
2022/09/27 08:19:15;;;;;;;;;;;;;;;14.78;100.00;98091.72;4987390;28;19926;-67
2022/09/27 08:22:14;;;;;;;;;;;;;;;14.87;100.00;98090.50;4932376;28;19918;-68
2022/09/27 08:24:44;;;;;;;;;;;;;;;14.97;100.00;98090.06;4990521;28;20707;-68
2022/09/27 08:27:29;;;;;;;;;;;;;;;15.06;100.00;98091.50;4995847;28;19921;-68
2022/09/27 08:29:57;;;;;;;;;;;;;;;15.06;100.00;98091.50;4985288;28;20031;-68
2022/09/27 08:32:23;;;;;;;;;;;;;;;15.04;100.00;98090.88;5019418;28;19935;-68
2022/09/27 08:34:49;;;;;;;;;;;;;;;15.10;100.00;98084.72;4983454;28;19928;-68
2022/09/27 08:37:14;;;;;;;;;;;;;;;15.16;100.00;98090.03;5005603;28;19921;-66
2022/09/27 08:39:40;;;;;;;;;;;;;;;15.26;100.00;98086.94;4989181;28;20345;-67
2022/09/27 08:42:17;;;;;;;;;;;;;;;15.33;100.00;98092.25;4984162;28;19963;-68
2022/09/27 08:45:02;;;;;;;;;;;;;;;15.45;100.00;98090.59;4970387;28;20263;-68
2022/09/27 08:47:28;;;;;;;;;;;;;;;15.54;100.00;98084.06;4983017;28;19922;-71
2022/09/27 08:50:01;;;;;;;;;;;;;;;15.64;100.00;98089.75;5018551;28;19929;-68
2022/09/27 08:52:37;;;;;;;;;;;;;;;15.73;100.00;98087.63;4985016;28;19920;-69
2022/09/27 08:55:19;;;;;;;;;;;;;;;15.83;100.00;98088.84;4989243;28;19964;-68
2022/09/27 08:57:48;;;;;;;;;;;;;;;15.93;100.00;98089.19;5000192;28;19960;-68
2022/09/27 09:00:13;;;;;;;;;;;;;;;16.02;100.00;98081.81;5005174;28;20293;-68
2022/09/27 09:02:40;;;;;;;;;;;;;;;16.06;100.00;98090.16;4987754;28;19976;-67
2022/09/27 09:05:24;;;;;;;;;;;;;;;16.14;100.00;98089.94;4985671;28;20374;-71
2022/09/27 09:08:00;;;;;;;;;;;;;;;16.19;100.00;98090.91;4983966;28;20086;-73
2022/09/27 09:13:38;;;;;;;;;;;;;;;16.27;100.00;98076.50;4988022;28;19924;-69
2022/09/27 09:16:22;;;;;;;;;;;;;;;16.32;100.00;98077.50;5014558;28;19918;-70
2022/09/27 09:18:59;;;;;;;;;;;;;;;16.40;100.00;98073.78;4983591;28;20409;-69
2022/09/27 09:21:44;;;;;;;;;;;;;;;16.48;100.00;98068.19;4984078;28;20016;-69
2022/09/27 09:24:21;;;;;;;;;;;;;;;16.57;100.00;98071.38;4984123;28;19921;-70
2022/09/27 09:26:54;;;;;;;;;;;;;;;16.63;100.00;98068.72;5013907;28;19936;-70
2022/09/27 09:29:23;;;;;;;;;;;;;;;16.69;100.00;98067.84;4987464;28;20374;-75
2022/09/27 09:32:08;;;;;;;;;;;;;;;16.74;100.00;98076.00;4987126;28;19925;-71
2022/09/27 09:34:42;;;;;;;;;;;;;;;16.81;100.00;98069.78;4984135;28;20374;-70
2022/09/27 09:37:16;;;;;;;;;;;;;;;16.87;100.00;98072.41;4985659;28;19921;-70
2022/09/27 09:39:44;;;;;;;;;;;;;;;16.89;100.00;98066.84;4989417;28;19967;-70
2022/09/27 09:42:10;;;;;;;;;;;;;;;16.88;100.00;98065.22;4985483;28;19939;-70
2022/09/27 09:44:38;;;;;;;;;;;;;;;16.88;100.00;98046.56;4982696;28;20375;-69
2022/09/27 09:47:11;;;;;;;;;;;;;;;16.94;100.00;98053.69;4984936;28;19918;-69
2022/09/27 09:49:45;;;;;;;;;;;;;;;17.01;100.00;98049.13;4988717;28;19917;-70
2022/09/27 09:52:17;;;;;;;;;;;;;;;17.08;100.00;98049.88;4986914;28;19918;-70
2022/09/27 09:55:01;;;;;;;;;;;;;;;17.15;100.00;98034.59;4986512;28;20016;-71
2022/09/27 09:57:33;;;;;;;;;;;;;;;17.27;100.00;98038.16;4986978;28;19917;-70
2022/09/27 10:00:01;;;;;;;;;;;;;;;17.34;100.00;98041.56;4988652;28;19925;-70
2022/09/27 10:02:37;;;;;;;;;;;;;;;17.38;100.00;98040.09;4966683;28;19980;-71
2022/09/27 10:05:12;;;;;;;;;;;;;;;17.43;100.00;98042.94;5021608;28;19924;-71
2022/09/27 10:07:38;;;;;;;;;;;;;;;17.48;100.00;98029.72;4966962;28;19917;-71
2022/09/27 10:10:05;;;;;;;;;;;;;;;17.51;100.00;98023.94;4983471;28;19918;-71
2022/09/27 10:12:30;;;;;;;;;;;;;;;17.55;100.00;98033.09;4999868;28;19918;-70
2022/09/27 10:15:01;;;;;;;;;;;;;;;17.61;100.00;98027.97;4985008;28;19921;-71
2022/09/27 10:17:35;;;;;;;;;;;;;;;17.69;100.00;98030.31;5014644;28;19917;-71
2022/09/27 10:20:02;;;;;;;;;;;;;;;17.77;100.00;98032.69;4982383;28;19964;-71
2022/09/27 10:22:35;;;;;;;;;;;;;;;17.81;100.00;98031.19;4985185;28;20496;-70
2022/09/27 10:25:09;;;;;;;;;;;;;;;17.86;100.00;98031.31;5013455;28;19918;-70
2022/09/27 10:27:53;;;;;;;;;;;;;;;17.94;100.00;98028.34;4987070;28;19948;-69
2022/09/27 10:30:31;;;;;;;;;;;;;;;18.00;100.00;98032.78;4979170;28;19968;-68
2022/09/27 10:33:03;;;;;;;;;;;;;;;18.04;100.00;98022.44;4986270;28;19968;-69
2022/09/27 10:35:44;;;;;;;;;;;;;;;18.06;100.00;98021.19;4984332;28;19926;-70
2022/09/27 10:38:15;;;;;;;;;;;;;;;18.10;100.00;98016.19;4986474;28;20314;-70
2022/09/27 10:40:41;;;;;;;;;;;;;;;18.16;100.00;98018.78;4981692;28;19922;-71
2022/09/27 10:43:29;;;;;;;;;;;;;;;18.23;100.00;98016.81;4980834;28;19921;-72
2022/09/27 10:45:58;;;;;;;;;;;;;;;18.36;100.00;98015.81;4975800;28;19922;-71
2022/09/27 10:48:24;;;;;;;;;;;;;;;18.44;100.00;98012.78;4981200;28;19925;-70
2022/09/27 10:50:56;;;;;;;;;;;;;;;18.58;97.47;98005.41;4981670;28;19922;-70
2022/09/27 10:53:24;;;;;;;;;;;;;;;18.65;98.43;98003.44;4985788;28;20282;-72
2022/09/27 10:56:00;;;;;;;;;;;;;;;18.74;97.89;98012.72;4982636;28;20290;-71
2022/09/27 10:58:28;;;;;;;;;;;;;;;18.84;98.51;98012.97;4981683;28;19917;-71
2022/09/27 11:01:02;;;;;;;;;;;;;;;18.91;98.04;98002.97;4977418;28;19980;-72
2022/09/27 11:03:30;;;;;;;;;;;;;;;19.01;92.99;98013.91;4984373;28;19922;-71
2022/09/27 11:05:58;;;;;;;;;;;;;;;19.17;88.11;98013.19;4980234;28;19977;-71
2022/09/27 11:08:33;;;;;;;;;;;;;;;19.25;88.47;98009.34;5014500;28;19917;-69
2022/09/27 11:11:12;;;;;;;;;;;;;;;19.35;81.82;98003.38;4982441;28;20446;-71
2022/09/27 11:13:38;;;;;;;;;;;;;;;19.46;79.46;97999.88;4986201;28;19918;-71
2022/09/27 11:16:43;;;;;;;;;;;;;;;19.57;79.04;97991.00;4982758;28;20012;-70
2022/09/27 11:19:08;;;;;;;;;;;;;;;19.69;79.03;97989.09;4925808;29;20399;-70
2022/09/27 11:21:44;;;;;;;;;;;;;;;19.78;77.09;97987.69;4968770;28;19921;-70
2022/09/27 11:24:11;;;;;;;;;;;;;;;19.88;76.31;97987.84;4982535;28;20398;-71
2022/09/27 11:26:49;;;;;;;;;;;;;;;20.03;75.93;97990.78;4985854;28;19917;-71
2022/09/27 11:29:34;;;;;;;;;;;;;;;20.21;74.36;97986.28;4989302;28;19928;-69
2022/09/27 11:32:47;;;;;;;;;;;;;;;20.49;70.68;97994.28;4970091;28;19926;-69
2022/09/27 11:35:22;;;;;;;;;;;;;;;20.65;66.07;97990.78;4979276;28;20382;-70
2022/09/27 11:38:06;;;;;;;;;;;;;;;20.81;64.27;97981.91;4983330;28;19918;-70
2022/09/27 11:40:53;;;;;;;;;;;;;;;21.05;60.50;97987.88;4988412;28;20009;-70
2022/09/27 11:43:18;;;;;;;;;;;;;;;21.16;59.75;97986.16;5006848;28;19932;-69
2022/09/27 11:46:08;;;;;;;;;;;;;;;21.20;58.16;97973.91;4984776;28;20449;-70
2022/09/27 11:48:47;;;;;;;;;;;;;;;21.32;58.05;97966.53;4981851;28;19968;-70
2022/09/27 11:51:32;;;;;;;;;;;;;;;21.38;54.97;97970.09;4983089;28;20363;-70
2022/09/27 11:54:13;;;;;;;;;;;;;;;21.48;55.14;97964.84;4941807;28;20020;-71
2022/09/27 11:56:41;;;;;;;;;;;;;;;21.61;53.39;97965.25;4990314;28;19985;-70
2022/09/27 11:59:25;;;;;;;;;;;;;;;21.74;53.35;97958.66;4986724;28;19937;-69
2022/09/27 12:02:02;;;;;;;;;;;;;;;21.89;52.86;97956.16;4984048;28;20023;-70
2022/09/27 12:04:41;;;;;;;;;;;;;;;22.05;49.52;97949.88;5011518;28;20339;-70
2022/09/27 12:07:22;;;;;;;;;;;;;;;22.25;49.19;97951.94;4986281;28;19991;-70
2022/09/27 12:09:54;;;;;;;;;;;;;;;22.44;49.28;97945.06;4986181;28;20020;-71
2022/09/27 12:12:22;;;;;;;;;;;;;;;22.63;48.52;97950.03;4986301;28;19933;-70
2022/09/27 12:14:58;;;;;;;;;;;;;;;22.82;49.61;97948.59;4987812;28;19948;-81
2022/09/27 12:17:32;;;;;;;;;;;;;;;23.07;49.04;97946.03;5005361;28;20014;-81
2022/09/27 12:19:59;;;;;;;;;;;;;;;23.07;44.40;97946.03;4999846;28;19917;-80
2022/09/27 12:23:03;;;;;;;;;;;;;;;23.27;43.90;97946.13;5002733;28;20405;-80
2022/09/27 12:25:58;;;;;;;;;;;;;;;23.48;43.91;97940.84;4982164;28;19921;-79
2022/09/27 12:28:26;;;;;;;;;;;;;;;23.64;45.98;97939.81;4986020;28;19967;-78
2022/09/27 12:31:00;;;;;;;;;;;;;;;23.76;46.35;97943.06;4987126;28;19917;-81
2022/09/27 12:33:37;;;;;;;;;;;;;;;23.82;45.87;97941.19;4984959;28;19917;-75
2022/09/27 12:36:06;;;;;;;;;;;;;;;23.97;43.26;97944.72;4991120;28;19925;-77
2022/09/27 12:38:38;;;;;;;;;;;;;;;24.11;42.66;97944.19;4979623;28;19918;-75
2022/09/27 12:41:05;;;;;;;;;;;;;;;24.14;42.37;97935.56;5003628;28;19917;-78
2022/09/27 12:43:40;;;;;;;;;;;;;;;24.21;42.32;97942.31;4989329;28;19948;-77
2022/09/27 12:46:22;;;;;;;;;;;;;;;24.31;41.80;97933.44;5018144;28;19917;-76
2022/09/27 12:49:04;;;;;;;;;;;;;;;24.43;40.11;97936.69;4989909;28;19925;-78
2022/09/27 12:51:45;;;;;;;;;;;;;;;24.54;38.96;97940.16;4987942;28;20016;-71
2022/09/27 12:54:11;;;;;;;;;;;;;;;24.72;37.46;97929.63;4986214;28;19928;-71
2022/09/27 12:56:44;;;;;;;;;;;;;;;25.00;38.39;97922.00;5004599;28;20016;-72
2022/09/27 12:59:16;;;;;;;;;;;;;;;25.16;39.39;97918.16;4986998;28;19922;-69
2022/09/27 13:02:00;;;;;;;;;;;;;;;25.33;37.54;97929.44;4986149;28;19918;-69
2022/09/27 13:04:26;;;;;;;;;;;;;;;25.51;39.44;97930.69;4985401;28;19929;-70
2022/09/27 13:06:55;;;;;;;;;;;;;;;25.72;38.56;97934.94;5019721;28;19917;-69
2022/09/27 13:09:24;;;;;;;;;;;;;;;25.80;36.31;97933.56;4984641;28;19922;-72
2022/09/27 13:11:56;;;;;;;;;;;;;;;25.93;37.56;97930.19;4985632;28;19924;-73
2022/09/27 13:14:24;;;;;;;;;;;;;;;26.05;36.39;97936.06;4991371;28;20059;-72
2022/09/27 13:16:50;;;;;;;;;;;;;;;26.14;35.97;97931.69;4986902;28;20390;-73